Time;durP1;ratioP1;P1;durP2;ratioP2;P2;SDS_P1;SDS_P2;PMS_P1;PMS_P2;Temp;Humidity;BMP_temperature;BMP_pressure;BME280_temperature;BME280_humidity;BME280_pressure;Samples;Min_cycle;Max_cycle;Signal;HPM_P1;HPM_P2
2022/10/28 00:00:18;;;;;;;11.30;7.00;;;;;;;12.39;53.54;101894.71;107261;1283;21949;-64
2022/10/28 00:02:46;;;;;;;10.00;7.10;;;;;;;12.36;53.43;101898.23;107238;1291;21961;-65
2022/10/28 00:05:11;;;;;;;10.40;7.20;;;;;;;12.33;53.56;101896.11;107257;1291;21988;-64
2022/10/28 00:07:38;;;;;;;11.30;7.10;;;;;;;12.33;53.59;101895.94;107307;1291;21954;-65
2022/10/28 00:10:05;;;;;;;13.60;7.50;;;;;;;12.33;53.43;101894.00;107322;1291;21955;-64
2022/10/28 00:12:35;;;;;;;10.00;7.00;;;;;;;12.32;53.46;101892.23;107327;1282;23135;-65
2022/10/28 00:15:02;;;;;;;8.40;6.40;;;;;;;12.30;53.61;101895.39;107195;1293;21961;-64
2022/10/28 00:17:27;;;;;;;11.00;6.80;;;;;;;12.28;53.66;101892.23;107239;1292;21950;-64
2022/10/28 00:19:54;;;;;;;9.10;6.50;;;;;;;12.27;53.65;101892.91;107270;1289;21956;-65
2022/10/28 00:22:26;;;;;;;9.70;7.20;;;;;;;12.28;53.59;101890.27;107254;1292;21955;-64
2022/10/28 00:24:52;;;;;;;11.30;7.50;;;;;;;12.28;53.57;101892.22;107093;1293;21953;-64
2022/10/28 00:27:18;;;;;;;10.80;7.20;;;;;;;12.26;53.67;101890.26;107256;1292;21956;-65
2022/10/28 00:29:44;;;;;;;9.30;6.40;;;;;;;12.23;53.34;101887.79;107379;1291;21960;-64
2022/10/28 00:32:10;;;;;;;11.40;6.20;;;;;;;12.20;53.38;101887.95;107726;1290;21958;-64
2022/10/28 00:34:37;;;;;;;9.00;6.20;;;;;;;12.13;53.50;101889.52;107266;1291;21963;-65
2022/10/28 00:37:03;;;;;;;10.10;6.40;;;;;;;12.01;53.65;101892.23;107345;1290;21949;-64
2022/10/28 00:39:29;;;;;;;11.50;6.90;;;;;;;11.93;53.95;101896.20;107115;1283;21956;-65
2022/10/28 00:41:57;;;;;;;11.30;7.10;;;;;;;11.90;53.79;101894.27;107266;1291;21995;-63
2022/10/28 00:44:39;;;;;;;8.80;6.80;;;;;;;11.86;53.61;101892.13;107293;1279;21976;-65
2022/10/28 00:47:25;;;;;;;8.40;5.80;;;;;;;11.80;53.51;101887.33;107287;1291;21953;-64
2022/10/28 00:49:51;;;;;;;11.10;6.50;;;;;;;11.74;53.66;101886.93;107149;1291;21966;-64
2022/10/28 00:52:20;;;;;;;8.70;6.00;;;;;;;11.70;53.58;101886.02;107342;1291;21950;-63
2022/10/28 00:54:46;;;;;;;14.20;7.70;;;;;;;11.66;53.47;101884.95;107394;1291;23625;-64
2022/10/28 00:57:17;;;;;;;18.10;8.50;;;;;;;11.63;53.42;101882.98;107097;1293;22132;-64
2022/10/28 00:59:45;;;;;;;11.10;7.20;;;;;;;11.57;53.45;101883.98;107339;1292;21954;-65
2022/10/28 01:02:10;;;;;;;9.90;6.50;;;;;;;11.50;53.34;101879.90;107345;1292;21974;-64
2022/10/28 01:04:38;;;;;;;9.80;6.00;;;;;;;11.43;53.20;101883.70;106902;1293;21951;-65
2022/10/28 01:07:04;;;;;;;9.10;5.60;;;;;;;11.35;53.18;101881.36;107077;1293;21953;-65
2022/10/28 01:09:31;;;;;;;7.70;5.50;;;;;;;11.30;53.21;101882.37;107066;1293;21949;-64
2022/10/28 01:12:22;;;;;;;8.90;6.20;;;;;;;11.25;53.26;101883.39;107384;1282;21953;-64
2022/10/28 01:14:55;;;;;;;10.50;6.20;;;;;;;11.22;53.33;101883.73;107273;1292;21947;-63
2022/10/28 01:17:43;;;;;;;10.40;6.10;;;;;;;11.16;53.52;101882.26;107262;1291;21956;-65
2022/10/28 01:20:30;;;;;;;8.60;6.30;;;;;;;11.12;53.58;101884.50;107324;1288;21956;-63
2022/10/28 01:23:26;;;;;;;8.60;5.60;;;;;;;11.12;53.69;101883.09;107216;1291;22419;-64
2022/10/28 01:26:11;;;;;;;7.90;5.90;;;;;;;11.10;53.58;101885.00;107254;1291;21950;-62
2022/10/28 01:29:05;;;;;;;8.80;5.50;;;;;;;11.06;53.47;101881.27;107268;1293;21956;-64
2022/10/28 01:31:56;;;;;;;8.20;5.90;;;;;;;11.01;53.38;101887.73;107250;1293;23126;-64
2022/10/28 01:34:34;;;;;;;9.40;6.60;;;;;;;10.95;53.34;101888.36;107180;1291;23717;-63
2022/10/28 01:37:23;;;;;;;10.20;6.00;;;;;;;10.91;53.64;101889.03;107262;1293;22072;-63
2022/10/28 01:40:01;;;;;;;9.70;6.10;;;;;;;10.84;54.02;101890.36;107109;1293;21952;-63
2022/10/28 01:42:31;;;;;;;10.00;6.40;;;;;;;10.83;53.97;101887.36;107248;1292;21995;-64
2022/10/28 01:45:15;;;;;;;11.20;7.10;;;;;;;10.81;54.14;101886.13;107262;1291;21962;-66
2022/10/28 01:47:47;;;;;;;11.90;7.50;;;;;;;10.79;54.23;101884.35;107450;1291;21930;-67
2022/10/28 01:50:33;;;;;;;9.30;6.30;;;;;;;10.79;54.39;101881.02;107237;1288;23797;-63
2022/10/28 01:53:03;;;;;;;10.70;7.10;;;;;;;10.80;54.41;101877.16;107213;1291;21971;-63
2022/10/28 01:55:32;;;;;;;9.70;6.30;;;;;;;10.79;54.31;101878.55;107156;1290;22093;-64
2022/10/28 01:57:58;;;;;;;10.20;6.60;;;;;;;10.78;54.44;101878.38;107158;1292;21978;-64
2022/10/28 02:00:25;;;;;;;8.90;6.50;;;;;;;10.78;54.66;101874.33;107141;1291;21947;-66
2022/10/28 02:02:51;;;;;;;10.20;6.70;;;;;;;10.81;54.59;101871.36;107123;1289;21949;-64
2022/10/28 02:05:38;;;;;;;10.50;6.80;;;;;;;10.82;54.59;101874.36;107120;1293;23119;-66
2022/10/28 02:08:34;;;;;;;8.90;6.40;;;;;;;10.82;54.59;101874.54;107314;1291;21958;-66
2022/10/28 02:11:09;;;;;;;13.00;7.10;;;;;;;10.85;54.60;101877.91;107283;1291;23692;-67
2022/10/28 02:13:45;;;;;;;9.10;6.40;;;;;;;10.87;54.50;101881.62;107326;1291;21949;-63
2022/10/28 02:16:38;;;;;;;8.40;5.80;;;;;;;10.88;54.55;101876.70;107324;1291;23718;-65
2022/10/28 02:19:35;;;;;;;9.40;6.80;;;;;;;10.83;54.52;101876.83;107247;1291;21940;-66
2022/10/28 02:22:09;;;;;;;8.30;5.90;;;;;;;10.76;54.59;101876.94;107189;1292;22079;-66
2022/10/28 02:24:48;;;;;;;10.40;6.40;;;;;;;10.73;54.69;101871.64;107430;1292;21950;-67
2022/10/28 02:27:24;;;;;;;11.50;6.70;;;;;;;10.70;54.60;101867.74;107258;1291;23469;-64
2022/10/28 02:30:01;;;;;;;9.40;6.40;;;;;;;10.66;54.61;101870.15;107250;1291;21966;-67
2022/10/28 02:32:28;;;;;;;8.70;6.10;;;;;;;10.65;54.63;101871.54;107277;1284;21962;-64
2022/10/28 02:34:55;;;;;;;9.90;6.60;;;;;;;10.63;54.68;101875.89;107178;1291;21965;-63
2022/10/28 02:37:25;;;;;;;15.10;6.90;;;;;;;10.62;54.73;101879.23;107348;1291;21962;-65
2022/10/28 02:39:57;;;;;;;12.90;7.20;;;;;;;10.61;54.63;101875.36;107015;1293;22243;-64
2022/10/28 02:42:27;;;;;;;9.70;6.40;;;;;;;10.62;54.63;101876.77;107304;1291;21960;-63
2022/10/28 02:44:59;;;;;;;9.90;6.40;;;;;;;10.62;54.69;101879.05;107133;1291;21949;-63
2022/10/28 02:47:27;;;;;;;10.80;6.40;;;;;;;10.57;54.87;101883.39;107280;1291;21958;-64
2022/10/28 02:49:56;;;;;;;9.50;7.30;;;;;;;10.51;54.80;101882.63;107229;1291;21947;-65
2022/10/28 02:52:24;;;;;;;11.10;7.50;;;;;;;10.49;54.84;101879.43;107326;1291;21995;-67
2022/10/28 02:54:57;;;;;;;10.70;7.10;;;;;;;10.47;54.93;101879.40;107378;1291;21959;-66
2022/10/28 02:57:29;;;;;;;10.10;6.50;;;;;;;10.45;54.77;101880.25;107107;1293;23638;-64
2022/10/28 03:00:00;;;;;;;10.20;6.50;;;;;;;10.41;54.71;101878.80;107343;1291;22722;-65
2022/10/28 03:02:26;;;;;;;9.40;6.70;;;;;;;10.38;54.86;101875.59;107239;1291;22944;-64
2022/10/28 03:04:52;;;;;;;11.50;6.80;;;;;;;10.39;54.81;101876.15;107358;1291;22001;-63
2022/10/28 03:07:19;;;;;;;9.80;7.20;;;;;;;10.42;54.74;101879.17;107395;1291;22033;-66
2022/10/28 03:09:46;;;;;;;13.40;6.40;;;;;;;10.44;54.65;101880.08;107333;1288;22414;-66
2022/10/28 03:12:11;;;;;;;9.50;6.70;;;;;;;10.44;54.70;101882.89;107511;1291;21955;-63
2022/10/28 03:14:37;;;;;;;10.00;6.40;;;;;;;10.42;54.59;101884.27;107055;1293;23634;-64
2022/10/28 03:17:03;;;;;;;12.10;6.40;;;;;;;10.40;54.55;101881.09;107218;1292;21969;-64
2022/10/28 03:19:29;;;;;;;7.70;5.60;;;;;;;10.38;54.44;101884.02;107345;1293;21955;-66
2022/10/28 03:21:55;;;;;;;9.90;6.10;;;;;;;10.36;54.49;101879.95;107281;1291;21957;-65
2022/10/28 03:24:21;;;;;;;9.20;7.20;;;;;;;10.35;54.49;101881.34;107350;1290;21950;-64
2022/10/28 03:26:47;;;;;;;12.50;7.10;;;;;;;10.34;54.51;101883.60;107170;1292;21952;-64
2022/10/28 03:29:13;;;;;;;9.10;6.20;;;;;;;10.35;54.27;101884.13;107077;1289;22005;-64
2022/10/28 03:31:39;;;;;;;9.70;6.30;;;;;;;10.33;54.18;101885.35;107198;1291;21953;-66
2022/10/28 03:34:04;;;;;;;11.40;6.10;;;;;;;10.29;54.08;101883.71;107416;1290;21960;-63
2022/10/28 03:36:31;;;;;;;14.30;5.80;;;;;;;10.25;54.04;101886.11;107408;1291;22785;-64
2022/10/28 03:38:57;;;;;;;17.50;6.70;;;;;;;10.24;54.16;101886.63;107393;1291;21951;-64
2022/10/28 03:41:25;;;;;;;9.00;5.70;;;;;;;10.24;54.27;101886.81;107391;1291;21957;-63
2022/10/28 03:43:51;;;;;;;14.00;7.80;;;;;;;10.24;54.19;101888.38;107205;1290;21960;-65
2022/10/28 03:46:17;;;;;;;11.70;7.10;;;;;;;10.21;54.18;101884.14;107149;1293;21957;-65
2022/10/28 03:48:42;;;;;;;12.30;6.60;;;;;;;10.18;54.12;101883.21;107208;1293;22008;-64
2022/10/28 03:51:09;;;;;;;12.70;6.70;;;;;;;10.15;54.10;101880.89;107173;1293;21937;-64
2022/10/28 03:53:35;;;;;;;8.40;6.00;;;;;;;10.13;54.20;101881.75;107301;1291;21949;-64
2022/10/28 03:56:01;;;;;;;10.00;6.40;;;;;;;10.13;54.17;101888.25;107390;1291;21952;-65
2022/10/28 03:58:27;;;;;;;10.90;6.40;;;;;;;10.10;54.21;101887.34;107089;1293;21948;-64
2022/10/28 04:00:53;;;;;;;9.10;6.70;;;;;;;10.09;54.17;101889.41;107323;1284;21957;-65
2022/10/28 04:03:20;;;;;;;10.80;6.90;;;;;;;10.07;54.23;101893.42;107276;1287;21954;-65
2022/10/28 04:05:49;;;;;;;10.60;7.00;;;;;;;10.05;54.21;101895.49;107322;1292;21948;-65
2022/10/28 04:08:18;;;;;;;11.10;6.40;;;;;;;10.02;54.28;101893.36;107139;1290;21948;-65
2022/10/28 04:10:46;;;;;;;10.60;6.50;;;;;;;10.03;54.32;101890.73;107283;1291;22032;-65
2022/10/28 04:13:12;;;;;;;9.00;6.00;;;;;;;10.02;54.28;101890.36;107100;1293;21949;-65
2022/10/28 04:15:38;;;;;;;11.30;6.60;;;;;;;10.01;54.37;101888.77;107289;1291;21947;-65
2022/10/28 04:18:06;;;;;;;11.60;7.10;;;;;;;10.01;54.38;101889.48;107298;1291;23741;-65
2022/10/28 04:20:32;;;;;;;11.10;7.00;;;;;;;10.00;54.38;101889.64;107201;1285;21950;-64
2022/10/28 04:22:59;;;;;;;9.90;6.30;;;;;;;10.02;54.31;101890.19;107324;1291;21995;-64
2022/10/28 04:25:25;;;;;;;10.90;6.80;;;;;;;10.06;54.17;101889.71;107311;1292;22424;-66
2022/10/28 04:27:51;;;;;;;10.50;6.00;;;;;;;10.08;54.24;101890.28;107049;1293;21956;-67
2022/10/28 04:30:18;;;;;;;9.70;6.60;;;;;;;10.09;54.14;101898.02;107213;1293;21947;-65
2022/10/28 04:32:44;;;;;;;12.50;6.80;;;;;;;10.10;54.30;101902.07;107397;1291;21946;-65
2022/10/28 04:35:11;;;;;;;10.50;7.00;;;;;;;10.11;54.45;101904.88;107356;1289;21947;-65
2022/10/28 04:37:38;;;;;;;12.40;6.80;;;;;;;10.08;54.58;101906.77;107102;1293;21954;-64
2022/10/28 04:40:04;;;;;;;12.00;7.10;;;;;;;10.00;54.64;101913.48;107151;1291;21968;-64
2022/10/28 04:42:31;;;;;;;11.40;7.10;;;;;;;9.94;54.72;101909.20;109458;1291;21953;-66
2022/10/28 04:44:57;;;;;;;12.40;7.20;;;;;;;9.96;55.11;101905.19;108914;1291;22471;-65
2022/10/28 04:47:23;;;;;;;11.50;7.50;;;;;;;10.04;55.52;101904.61;107246;1291;21945;-66
2022/10/28 04:49:49;;;;;;;13.00;8.20;;;;;;;10.15;55.48;101899.84;107082;1287;22214;-64
2022/10/28 04:52:16;;;;;;;13.30;7.20;;;;;;;10.21;55.23;101900.80;107160;1290;21992;-64
2022/10/28 04:55:01;;;;;;;12.00;7.00;;;;;;;10.20;55.00;101904.12;107013;1293;23064;-65
2022/10/28 04:57:28;;;;;;;11.90;6.90;;;;;;;10.17;55.08;101906.17;107095;1293;23745;-64
2022/10/28 04:59:54;;;;;;;14.50;7.50;;;;;;;10.18;55.14;101907.42;107183;1293;21957;-65
2022/10/28 05:02:21;;;;;;;10.70;7.70;;;;;;;10.23;55.33;101905.56;107175;1290;21954;-66
2022/10/28 05:04:47;;;;;;;11.60;7.00;;;;;;;10.28;55.33;101908.09;107330;1291;22011;-64
2022/10/28 05:07:14;;;;;;;9.90;6.80;;;;;;;10.33;55.34;101907.65;107087;1292;21952;-65
2022/10/28 05:09:39;;;;;;;11.70;6.80;;;;;;;10.43;55.34;101910.23;107320;1288;21961;-62
2022/10/28 05:12:05;;;;;;;11.80;7.00;;;;;;;10.53;55.42;101911.42;107280;1287;22412;-63
2022/10/28 05:14:31;;;;;;;12.60;6.90;;;;;;;10.60;55.34;101916.95;107160;1293;21992;-67
2022/10/28 05:16:58;;;;;;;10.00;6.90;;;;;;;10.65;55.36;101920.16;107432;1290;21947;-68
2022/10/28 05:19:24;;;;;;;10.30;6.60;;;;;;;10.70;55.59;101922.34;107356;1292;21951;-63
2022/10/28 05:21:52;;;;;;;10.90;6.50;;;;;;;10.79;55.46;101924.20;107314;1292;21949;-63
2022/10/28 05:24:18;;;;;;;11.80;6.80;;;;;;;10.90;55.60;101926.60;107201;1293;21992;-65
2022/10/28 05:26:45;;;;;;;12.30;6.30;;;;;;;10.99;55.62;101928.28;107110;1291;21950;-68
2022/10/28 05:29:10;;;;;;;10.40;7.20;;;;;;;11.11;55.62;101929.45;107300;1291;21957;-68
2022/10/28 05:31:36;;;;;;;11.00;7.00;;;;;;;11.21;55.61;101927.98;107286;1290;21947;-63
2022/10/28 05:34:03;;;;;;;12.50;6.70;;;;;;;11.34;55.66;101925.83;107224;1291;24428;-67
2022/10/28 05:36:30;;;;;;;11.70;7.10;;;;;;;11.47;55.69;101926.64;107179;1293;21950;-63
2022/10/28 05:38:57;;;;;;;10.60;6.90;;;;;;;11.60;55.71;101929.56;107171;1292;23627;-65
2022/10/28 05:41:23;;;;;;;14.40;7.10;;;;;;;11.72;55.77;101931.59;107169;1291;21965;-66
2022/10/28 05:43:50;;;;;;;10.40;7.20;;;;;;;11.82;55.96;101929.38;107173;1291;21951;-64
2022/10/28 05:46:16;;;;;;;12.30;7.70;;;;;;;11.93;55.98;101926.46;107269;1291;22066;-66
2022/10/28 05:48:43;;;;;;;10.80;7.40;;;;;;;12.06;56.03;101928.52;107217;1291;21955;-65
2022/10/28 05:51:09;;;;;;;11.50;7.50;;;;;;;12.19;56.19;101931.94;107281;1291;21948;-66
2022/10/28 05:53:34;;;;;;;12.60;7.60;;;;;;;12.32;56.21;101928.49;107187;1291;21965;-64
2022/10/28 05:56:00;;;;;;;14.30;8.40;;;;;;;12.47;56.15;101928.91;107302;1291;21925;-63
2022/10/28 05:58:27;;;;;;;10.70;7.50;;;;;;;12.60;56.43;101931.09;107279;1291;21968;-63
2022/10/28 06:00:53;;;;;;;12.90;8.10;;;;;;;12.72;56.71;101931.30;107177;1293;21921;-65
2022/10/28 06:03:19;;;;;;;11.50;7.30;;;;;;;12.84;56.66;101929.58;107142;1293;21947;-64
2022/10/28 06:05:46;;;;;;;15.50;8.20;;;;;;;12.96;56.91;101930.67;107184;1291;21989;-65
2022/10/28 06:08:11;;;;;;;11.50;7.40;;;;;;;13.11;57.13;101924.19;107202;1293;21941;-64
2022/10/28 06:10:41;;;;;;;14.70;7.80;;;;;;;13.28;57.05;101923.51;107075;1290;24410;-61
2022/10/28 06:13:08;;;;;;;13.10;8.80;;;;;;;13.46;57.09;101922.30;107056;1293;21957;-66
2022/10/28 06:15:33;;;;;;;17.80;9.00;;;;;;;13.65;57.14;101927.07;107277;1291;21973;-62
2022/10/28 06:18:00;;;;;;;11.90;8.60;;;;;;;13.83;57.03;101923.37;107269;1283;21963;-63
2022/10/28 06:20:26;;;;;;;15.40;8.30;;;;;;;14.00;57.06;101925.27;107230;1291;21960;-66
2022/10/28 06:22:53;;;;;;;8.40;6.80;;;;;;;14.19;57.22;101917.81;107234;1293;21958;-63
2022/10/28 06:25:20;;;;;;;10.00;7.10;;;;;;;14.38;57.22;101921.47;107508;1291;23712;-64
2022/10/28 06:27:51;;;;;;;14.90;8.50;;;;;;;14.56;57.35;101921.05;106967;1278;341163;-63
2022/10/28 06:30:19;;;;;;;14.40;7.70;;;;;;;14.75;57.25;101917.64;107112;1293;22672;-65
2022/10/28 06:32:45;;;;;;;13.10;7.50;;;;;;;14.91;57.24;101917.20;107182;1285;21955;-66
2022/10/28 06:35:11;;;;;;;21.60;8.20;;;;;;;15.08;57.34;101914.27;107140;1293;21980;-68
2022/10/28 06:37:36;;;;;;;15.40;7.80;;;;;;;15.28;57.64;101915.37;107203;1293;23722;-68
2022/10/28 06:40:04;;;;;;;9.70;5.80;;;;;;;15.50;57.54;101919.45;107315;1284;22164;-65
2022/10/28 06:42:30;;;;;;;12.30;6.20;;;;;;;15.70;57.45;101918.39;107386;1291;21954;-65
2022/10/28 06:44:56;;;;;;;9.80;6.40;;;;;;;15.90;57.32;101923.73;107351;1290;21951;-65
2022/10/28 06:47:22;;;;;;;12.80;6.80;;;;;;;16.06;57.08;101927.81;107261;1292;22414;-68
2022/10/28 06:49:49;;;;;;;8.60;5.90;;;;;;;16.17;56.71;101924.14;107251;1293;21972;-65
2022/10/28 06:52:14;;;;;;;8.80;4.90;;;;;;;16.26;56.50;101922.98;107253;1291;21954;-66
2022/10/28 06:54:40;;;;;;;10.30;4.90;;;;;;;16.36;56.47;101924.10;107232;1288;21947;-65
2022/10/28 06:57:09;;;;;;;10.50;5.00;;;;;;;16.47;56.41;101920.96;107323;1281;21959;-67
2022/10/28 06:59:35;;;;;;;9.30;5.60;;;;;;;16.60;56.31;101923.81;107384;1291;21939;-66
2022/10/28 07:02:04;;;;;;;10.30;5.70;;;;;;;16.72;56.16;101924.38;107358;1286;22419;-70
2022/10/28 07:04:30;;;;;;;13.30;7.40;;;;;;;16.84;56.01;101922.61;107242;1293;24512;-65
2022/10/28 07:06:58;;;;;;;8.70;5.70;;;;;;;16.97;55.90;101924.77;107345;1291;21958;-70
2022/10/28 07:09:24;;;;;;;8.50;5.40;;;;;;;17.06;55.66;101931.73;107311;1288;21946;-65
2022/10/28 07:11:53;;;;;;;8.00;5.80;;;;;;;17.09;55.57;101934.00;107092;1293;22412;-70
2022/10/28 07:14:19;;;;;;;10.30;5.40;;;;;;;17.13;55.74;101936.07;106957;1293;23657;-66
2022/10/28 07:16:49;;;;;;;7.30;5.40;;;;;;;17.10;55.97;101937.52;107247;1293;21995;-69
2022/10/28 07:19:17;;;;;;;8.40;4.80;;;;;;;17.19;56.35;101937.56;106926;1291;21973;-66
2022/10/28 07:21:42;;;;;;;11.00;7.70;;;;;;;17.35;56.19;101935.20;107177;1293;21977;-66
2022/10/28 07:24:08;;;;;;;7.90;6.20;;;;;;;17.63;55.75;101934.04;107193;1293;21950;-69
2022/10/28 07:26:35;;;;;;;7.60;4.80;;;;;;;17.79;55.32;101934.98;107179;1293;23605;-65
2022/10/28 07:29:00;;;;;;;6.40;3.90;;;;;;;17.92;55.47;101930.50;107363;1292;21959;-69
2022/10/28 07:31:27;;;;;;;7.80;4.80;;;;;;;18.10;55.21;101935.36;107076;1288;23604;-68
2022/10/28 07:33:53;;;;;;;7.40;4.70;;;;;;;18.25;54.80;101939.51;106917;1291;21982;-66
2022/10/28 07:36:19;;;;;;;10.90;6.30;;;;;;;18.33;54.23;101942.19;107269;1292;21960;-67
2022/10/28 07:38:48;;;;;;;18.00;12.10;;;;;;;18.44;54.26;101941.98;107243;1292;21948;-68
2022/10/28 07:41:15;;;;;;;16.00;8.50;;;;;;;18.64;54.28;101942.47;107328;1291;21947;-68
2022/10/28 07:43:40;;;;;;;7.70;4.40;;;;;;;18.91;54.52;101945.45;107309;1291;21957;-67
2022/10/28 07:46:09;;;;;;;5.20;3.60;;;;;;;19.06;53.74;101942.98;107298;1289;21958;-69
2022/10/28 07:48:36;;;;;;;14.90;5.40;;;;;;;19.16;53.56;101939.02;107041;1293;23711;-68
2022/10/28 07:51:05;;;;;;;8.00;4.40;;;;;;;19.22;53.48;101941.02;107077;1293;21953;-68
2022/10/28 07:53:35;;;;;;;10.00;4.60;;;;;;;19.20;53.03;101936.98;107139;1293;21956;-68
2022/10/28 07:56:03;;;;;;;8.40;4.40;;;;;;;19.14;53.17;101940.50;106987;1293;21957;-68
2022/10/28 07:58:29;;;;;;;9.70;4.70;;;;;;;19.10;53.01;101941.83;107315;1293;21952;-68
2022/10/28 08:00:55;;;;;;;7.10;4.10;;;;;;;19.07;53.09;101941.73;107265;1293;21948;-68
2022/10/28 08:03:21;;;;;;;6.00;3.30;;;;;;;19.06;52.84;101941.21;107245;1293;21964;-67
2022/10/28 08:05:46;;;;;;;8.70;4.20;;;;;;;19.05;52.91;101935.02;107195;1293;21948;-68
2022/10/28 08:08:12;;;;;;;8.40;5.40;;;;;;;19.11;52.75;101933.96;107250;1292;21933;-68
2022/10/28 08:10:39;;;;;;;6.50;4.20;;;;;;;19.24;52.49;101930.84;107281;1292;21952;-69
2022/10/28 08:13:05;;;;;;;7.70;4.10;;;;;;;19.36;52.51;101930.36;107424;1289;21952;-67
2022/10/28 08:15:32;;;;;;;7.30;4.80;;;;;;;19.56;52.76;101929.15;107238;1291;21947;-67
2022/10/28 08:18:06;;;;;;;7.30;4.30;;;;;;;19.73;53.13;101931.75;107256;1291;21989;-67
2022/10/28 08:20:32;;;;;;;8.90;4.20;;;;;;;19.90;52.79;101932.40;107934;1291;21944;-69
2022/10/28 08:22:58;;;;;;;9.10;3.60;;;;;;;20.00;52.42;101936.79;106926;1293;22827;-68
2022/10/28 08:25:24;;;;;;;5.70;3.60;;;;;;;20.09;52.38;101938.30;107218;1291;21949;-67
2022/10/28 08:27:50;;;;;;;8.90;4.60;;;;;;;20.20;51.62;101936.23;107167;1291;21965;-68
2022/10/28 08:30:17;;;;;;;7.10;4.10;;;;;;;20.27;51.79;101936.23;107027;1291;23684;-68
2022/10/28 08:32:43;;;;;;;10.20;5.10;;;;;;;20.31;51.50;101938.95;107006;1293;23696;-68
2022/10/28 08:35:08;;;;;;;7.60;3.80;;;;;;;20.32;51.55;101938.02;107167;1291;21982;-68
2022/10/28 08:37:34;;;;;;;7.70;3.80;;;;;;;20.37;51.27;101938.41;107161;1291;21954;-67
2022/10/28 08:40:01;;;;;;;5.10;3.70;;;;;;;20.41;50.94;101937.41;107229;1292;21957;-66
2022/10/28 08:42:27;;;;;;;6.30;3.50;;;;;;;20.35;50.61;101943.47;107213;1293;22211;-66
2022/10/28 08:44:56;;;;;;;4.70;3.40;;;;;;;20.29;50.72;101942.95;107176;1293;23471;-64
2022/10/28 08:47:43;;;;;;;6.10;4.00;;;;;;;20.31;50.92;101943.42;107282;1291;21954;-69
2022/10/28 08:50:14;;;;;;;6.50;4.00;;;;;;;20.45;50.72;101940.53;107113;1285;21989;-69
2022/10/28 08:52:49;;;;;;;5.80;3.90;;;;;;;20.53;50.63;101936.17;107343;1291;22175;-64
2022/10/28 08:55:25;;;;;;;5.90;3.80;;;;;;;20.59;50.57;101938.85;107324;1293;22045;-67
2022/10/28 08:57:51;;;;;;;5.40;3.80;;;;;;;20.70;50.26;101939.62;107212;1293;22411;-66
2022/10/28 09:00:30;;;;;;;5.30;3.60;;;;;;;20.88;50.09;101932.30;107269;1292;21944;-68
2022/10/28 09:03:16;;;;;;;7.80;4.10;;;;;;;21.09;49.52;101928.80;107032;1292;23673;-68
2022/10/28 09:05:49;;;;;;;5.80;3.30;;;;;;;21.34;49.50;101926.41;107569;1293;22297;-68
2022/10/28 09:08:27;;;;;;;6.80;3.10;;;;;;;21.56;49.94;101923.71;107239;1293;23077;-69
2022/10/28 09:11:23;;;;;;;5.70;3.30;;;;;;;21.76;49.80;101917.68;107357;1291;22100;-66
2022/10/28 09:14:12;;;;;;;47.30;16.10;;;;;;;22.06;51.36;101912.52;107251;1292;21963;-67
2022/10/28 09:16:48;;;;;;;267.60;64.60;;;;;;;22.44;51.80;101914.38;107228;1293;21949;-69
2022/10/28 09:19:17;;;;;;;185.00;47.50;;;;;;;22.74;50.90;101914.86;107249;1292;21968;-68
2022/10/28 09:21:47;;;;;;;58.10;19.00;;;;;;;22.98;50.86;101911.94;107257;1293;23667;-69
2022/10/28 09:24:19;;;;;;;108.60;32.90;;;;;;;23.22;50.70;101907.59;107382;1293;22757;-69
2022/10/28 09:26:56;;;;;;;13.00;6.00;;;;;;;23.53;50.46;101906.48;107356;1291;22526;-65
2022/10/28 09:29:48;;;;;;;15.40;4.90;;;;;;;23.79;48.86;101905.19;107275;1291;21948;-68
2022/10/28 09:32:38;;;;;;;7.30;3.30;;;;;;;24.00;49.04;101902.88;107264;1292;23654;-65
2022/10/28 09:35:12;;;;;;;5.20;2.90;;;;;;;24.00;46.09;101904.84;107143;1290;21951;-65
2022/10/28 09:37:41;;;;;;;5.10;3.40;;;;;;;23.92;45.94;101901.02;107023;1293;21960;-66
2022/10/28 09:40:34;;;;;;;6.00;3.20;;;;;;;23.95;46.58;101900.94;107376;1293;21951;-67
2022/10/28 09:43:12;;;;;;;16.70;4.60;;;;;;;24.03;46.56;101901.48;106903;1293;23706;-64
2022/10/28 09:45:43;;;;;;;6.20;3.40;;;;;;;24.10;46.22;101899.71;107108;1293;23661;-65
2022/10/28 09:48:18;;;;;;;5.60;3.30;;;;;;;24.02;45.30;101894.91;107089;1293;21924;-69
2022/10/28 09:50:44;;;;;;;4.50;2.90;;;;;;;23.88;45.38;101891.34;107102;1293;23068;-65
2022/10/28 09:53:16;;;;;;;5.70;3.00;;;;;;;23.84;45.68;101887.06;107003;1291;22001;-67
2022/10/28 09:55:42;;;;;;;5.40;3.00;;;;;;;23.88;46.51;101886.51;107243;1289;21959;-65
2022/10/28 09:58:07;;;;;;;4.80;3.10;;;;;;;23.99;47.02;101887.69;107279;1283;23829;-65
2022/10/28 10:00:34;;;;;;;4.50;2.60;;;;;;;24.02;46.78;101882.88;106910;1290;21965;-65
2022/10/28 10:03:00;;;;;;;4.10;3.00;;;;;;;23.97;45.94;101881.11;107222;1291;21958;-68
2022/10/28 10:05:26;;;;;;;3.90;2.80;;;;;;;23.88;44.68;101879.17;107265;1292;21951;-68
2022/10/28 10:08:04;;;;;;;14.90;4.20;;;;;;;23.70;43.58;101876.92;107103;1293;21955;-67
2022/10/28 10:10:31;;;;;;;4.30;3.00;;;;;;;23.36;42.79;101874.06;107408;1286;21957;-68
2022/10/28 10:13:00;;;;;;;6.80;3.10;;;;;;;23.12;43.93;101873.60;107536;1291;21948;-68
2022/10/28 10:15:30;;;;;;;4.90;3.30;;;;;;;23.10;43.84;101873.33;107239;1291;22227;-65
2022/10/28 10:17:59;;;;;;;6.50;2.80;;;;;;;23.19;43.77;101870.98;107378;1289;21941;-65
2022/10/28 10:20:25;;;;;;;10.20;3.30;;;;;;;23.35;44.15;101865.34;107208;1289;22165;-64
2022/10/28 10:22:52;;;;;;;6.10;2.90;;;;;;;23.59;44.30;101862.34;106986;1293;21961;-69
2022/10/28 10:25:18;;;;;;;3.70;2.70;;;;;;;23.75;43.80;101857.85;107281;1293;21959;-69
2022/10/28 10:28:03;;;;;;;4.40;3.40;;;;;;;23.90;44.50;101850.56;107277;1292;21956;-69
2022/10/28 10:30:33;;;;;;;3.00;2.60;;;;;;;24.08;43.70;101849.79;107160;1293;21992;-64
2022/10/28 10:33:00;;;;;;;6.50;4.20;;;;;;;24.12;43.45;101851.25;107315;1293;21961;-69
2022/10/28 10:35:34;;;;;;;16.50;8.60;;;;;;;24.02;43.23;101849.36;107118;1293;23678;-64
2022/10/28 10:38:00;;;;;;;11.50;6.70;;;;;;;23.88;43.19;101849.41;107383;1291;21988;-63
2022/10/28 10:40:39;;;;;;;7.10;4.40;;;;;;;23.74;43.02;101849.15;107428;1291;21947;-69
2022/10/28 10:43:17;;;;;;;5.40;3.90;;;;;;;23.59;43.00;101851.92;107306;1292;23063;-69
2022/10/28 10:46:05;;;;;;;5.30;3.80;;;;;;;23.42;43.09;101850.70;106618;1293;1002395;-70
2022/10/28 10:48:34;;;;;;;11.30;6.60;;;;;;;23.22;43.15;101851.38;107361;1292;21998;-70
2022/10/28 10:51:23;;;;;;;11.10;6.50;;;;;;;23.05;43.31;101849.18;107397;1293;24275;-70
2022/10/28 10:53:51;;;;;;;22.70;13.10;;;;;;;22.91;41.92;101849.22;107348;1293;21953;-70
2022/10/28 10:56:25;;;;;;;20.80;12.30;;;;;;;22.74;42.38;101852.21;107296;1292;21945;-70
2022/10/28 10:58:52;;;;;;;12.50;7.70;;;;;;;22.57;41.99;101848.78;107352;1293;24172;-63
2022/10/28 11:01:23;;;;;;;5.90;3.70;;;;;;;22.52;41.96;101847.72;107353;1293;21947;-69
2022/10/28 11:03:52;;;;;;;;;;;;;;;22.59;41.69;101846.04;107408;1292;21958;-64
2022/10/28 11:06:26;;;;;;;10.50;4.90;;;;;;;22.78;41.99;101842.23;107400;1293;21952;-63
2022/10/28 11:09:01;;;;;;;6.30;3.50;;;;;;;23.10;43.21;101834.66;107362;1293;21958;-70
2022/10/28 11:11:34;;;;;;;4.30;3.20;;;;;;;23.40;43.03;101827.33;107176;1283;21935;-69
2022/10/28 11:14:11;;;;;;;7.40;4.60;;;;;;;23.58;41.03;101824.20;107378;1291;21999;-64
2022/10/28 11:16:52;;;;;;;8.50;4.60;;;;;;;23.67;41.18;101823.63;107340;1293;21963;-70
2022/10/28 11:19:27;;;;;;;6.90;3.70;;;;;;;23.69;41.52;101815.48;107310;1282;21956;-64
2022/10/28 11:22:19;;;;;;;5.80;4.00;;;;;;;23.76;41.63;101814.33;107342;1293;21973;-69
2022/10/28 11:25:26;;;;;;;9.70;3.60;;;;;;;23.85;41.71;101817.27;107296;1291;23696;-64